x

Portlock Bank- 76nm Ene Of Kodiak, Ak (46080) Weather Station

10:50pm - Tue 31st May 2016 All times are AKDT. -8 hours from GMT.

  • Wind
    22mph
  • Air Temp 49°f
  • Sea Pressure 1002.7mb
  • Portlock Bank- 76nm Ene Of Kodiak, Ak
  • Portlock Bank- 76nm Ene Of Kodiak, Ak

More Historic Weather Station data

Upgrade to MSW Pro to gain access to the past 30 days of data for over 8000 Wavebouys and Weather Stations around the globe.

Join Pro

Comparision Forecast

View Surf forecast
   
Tue 05/31 10:50pm  -   -   -  22
mph
1002.7mb - 49f
9:50pm 8ft 7s 6s 20 25 mph 1002.7mb 49f 49f
8:50pm  -   -   -  22 27 mph 1002.8mb 49f 49f
7:50pm 9ft 9s 6s 22 27 mph 1003.1mb 49f 49f
6:50pm 9ft 8s 6s 22 27 mph 1003.4mb 49f 50f
5:50pm 10ft 9s 6s 22 25 mph 1003.7mb 49f 50f
4:50pm  -   -   -  20 27 mph 1004.2mb 49f 50f
3:50pm  -   -   -  20 25 mph 1004.5mb 49f 49f
2:50pm  -   -   -  20 25 mph 1004.6mb 49f 50f
1:50pm 11ft 8s 7s 18 22 mph 1004.8mb 49f 50f
12:50pm 13ft 9s 7s 22 27 mph 1004.5mb 49f 50f
11:50am  -   -   -  25 31 mph 1004.6mb 49f 49f
10:50am  -   -   -  29 34 mph 1004.8mb 49f 49f
9:50am  -   -   -  29 34 mph 1005.4mb 49f 49f
8:50am  -   -   -  29 38 mph 1005.9mb 49f 49f
7:50am  -   -   -  29 36 mph 1006.8mb 49f 49f
6:50am 10.5ft 8s 5s 31 38 mph 1007.9mb 49f 49f
5:50am  -   -   -  31 38 mph 1009mb 49f 49f
4:50am  -   -   -  29
mph
1010.1mb 49f 49f
3:50am  -   -   -  27 34 mph 1011.3mb 49f 49f
2:50am  -   -   -  25 29 mph 1012.2mb 49f 50f
1:50am  -   -   -  22 29 mph 1013.3mb 49f 50f
12:50am  -   -   -  22 27 mph 1013.8mb 50f 49f
Mon 05/30 11:50pm  -   -   -  22
mph
- - 48f
10:50pm  -   -   -  20 25 mph 1014.9mb 50f 47f
9:50pm 4.5ft 5s 4s 20 25 mph 1015.3mb 50f 49f
8:50pm  -   -   -  20
mph
- - -
7:50pm 4ft 4s 4s 20 25 mph 1016.3mb 50f 49f
6:50pm  -   -   -  20 22 mph 1017.1mb 50f 49f
5:50pm  -   -   -  20
mph
1017.6mb - 48f
4:50pm  -   -   -  18 20 mph 1018.5mb 50f 49f
3:50pm  -   -   -  16 18 mph 1019.2mb 50f 48f
2:50pm  -   -   -  13 16 mph 1019.5mb 50f 48f
1:50pm 3.5ft 8s 4s 16 20 mph 1019.5mb 50f 48f
12:50pm  -   -   -  13 18 mph 1019.3mb 50f 48f
11:50am 3.5ft 4s 4s 16 20 mph 1018.9mb 50f 48f
10:50am  -   -   -  16 18 mph 1018.7mb 50f 48f
9:50am  -   -   -  16
mph
1018.2mb - 48f
8:50am 3.5ft 6s 4s 18 20 mph 1017.9mb 50f 48f
7:50am  -   -   -  16 18 mph 1017.7mb 50f 48f
6:50am  -   -   -  16 18 mph 1017.3mb 50f 48f
5:50am  -   -   -  16
mph
1017mb 50f 48f
4:50am  -   -   -  16 20 mph 1016.9mb 49f 48f
3:50am  -   -   -  13 16 mph 1016.8mb 49f 49f
2:50am 3.5ft 6s 4s 13 16 mph 1016.8mb 49f 49f
1:50am 3.5ft 6s 4s 13 16 mph 1016.8mb 50f 49f
12:50am  -   -   -  13 16 mph 1016.7mb 50f 48f
Sun 05/29 11:50pm 3.5ft 6s 4s 18 20 mph 1016mb 50f 48f
10:50pm 3.5ft 5s 4s 18 20 mph 1015.9mb 50f 48f
9:50pm 3.5ft 6s 4s 13 18 mph 1016mb 50f 48f
8:50pm 3.5ft 5s 4s 16 18 mph 1015.5mb 50f 48f
7:50pm  -   -   -  20 25 mph 1014.7mb 50f 48f
6:50pm  -   -   -  13 16 mph 1015.7mb 50f 48f
5:50pm  -   -   -  13 18 mph 1015.7mb 50f 48f
4:50pm 4ft 5s 4s 13 16 mph 1015.7mb 49f 48f
3:50pm 4ft 5s 4s 16 18 mph 1015.7mb 49f 48f
2:50pm 4ft 6s 4s 16 18 mph 1015.6mb 49f 48f
1:50pm 3.5ft 6s 4s 16 18 mph 1015.7mb 49f 48f
12:50pm 3.5ft 4s 4s 16 18 mph 1015.8mb 49f 48f
11:50am 3.5ft 5s 4s 13 16 mph 1015.7mb 49f 48f
10:50am 3.5ft 6s 4s 13 16 mph 1015.7mb 49f 48f
9:50am 3.5ft 6s 4s 16 18 mph 1015.8mb 49f 48f
8:50am 3.5ft 6s 4s 18 20 mph 1015.2mb 49f 48f
7:50am  -   -   -  16 18 mph 1015.8mb 49f 48f
6:50am 3.5ft 6s 4s 16 20 mph 1015.9mb 49f 48f
5:50am  -   -   -  16 18 mph 1015.8mb 49f 48f
3:50am  -   -   -  18 20 mph 1016.2mb 49f 48f
2:50am 3.5ft 5s 4s 16 18 mph 1016.7mb 49f 49f
1:50am 4ft 5s 4s 18 20 mph 1016.6mb 49f 49f
12:50am  -   -   -  16 20 mph 1016.7mb 49f 48f
Sat 05/28 11:50pm 3.5ft 4s 4s 18 20 mph 1016.9mb 49f 48f
10:50pm 3ft 4s 4s 18 20 mph 1017mb 50f 47f
9:50pm 2.5ft 4s 3s 16 20 mph 1016.9mb 50f 47f
8:50pm 2.5ft 10s 4s 16 18 mph 1017.4mb 50f 47f
7:50pm  -   -   -  13 16 mph 1017.4mb 50f 47f
6:50pm 2ft 6s 4s 11 13 mph 1017.7mb 50f 48f
5:50pm 2.5ft 7s 4s 11 16 mph 1017.4mb 50f 47f
4:50pm  -   -   -  9 13 mph 1017.9mb 49f 47f
3:50pm 2ft 5s 4s 11 13 mph 1018mb 49f 48f
2:50pm  -   -   -  11 13 mph 1017.9mb 49f 47f
1:50pm  -   -   -  13 16 mph 1018.3mb 49f 47f
12:50pm 2ft 10s 5s 11 13 mph 1018.4mb 49f 47f
11:50am 2ft 7s 4s 11 13 mph 1018.3mb 49f 48f
10:50am 2ft 7s 4s 11 13 mph 1018.2mb 49f 48f
9:50am 2ft 7s 4s 9 11 mph 1018.3mb 49f 46f
8:50am  -   -   -  13 16 mph 1018mb 49f 46f